createdAt,value
2019-04-26T00:03:07.756Z,1
2019-04-26T00:08:06.954Z,2
2019-04-26T00:13:06.987Z,1
2019-04-26T00:18:06.971Z,2
2019-04-26T00:23:06.962Z,1
2019-04-26T00:28:06.967Z,1
2019-04-26T00:33:06.979Z,1
2019-04-26T00:38:06.920Z,1
2019-04-26T00:43:06.952Z,1
2019-04-26T00:48:06.924Z,1
2019-04-26T00:53:06.924Z,1
2019-04-26T00:58:06.911Z,1
2019-04-26T01:03:06.995Z,1
2019-04-26T01:08:06.917Z,1
2019-04-26T01:13:06.918Z,1
2019-04-26T01:18:07.007Z,2
2019-04-26T01:23:06.917Z,2
2019-04-26T01:28:06.984Z,1
2019-04-26T01:33:07.006Z,2
2019-04-26T01:38:07.009Z,1
2019-04-26T01:43:07.003Z,3
2019-04-26T01:48:06.919Z,12
2019-04-26T01:53:06.999Z,3
2019-04-26T01:58:07.000Z,3
2019-04-26T02:03:07.003Z,2
2019-04-26T02:08:06.920Z,3
2019-04-26T02:13:06.987Z,2
2019-04-26T02:18:07.002Z,3
2019-04-26T02:23:06.990Z,2
2019-04-26T02:28:07.034Z,3
2019-04-26T02:33:07.041Z,1
2019-04-26T02:38:06.900Z,2
2019-04-26T02:43:06.963Z,2
2019-04-26T02:48:07.006Z,1
2019-04-26T02:53:06.905Z,1
2019-04-26T02:58:06.977Z,2
2019-04-26T03:03:06.971Z,2
2019-04-26T03:08:06.978Z,1
2019-04-26T03:13:06.980Z,2
2019-04-26T03:18:06.993Z,1
2019-04-26T03:23:06.999Z,1
2019-04-26T03:28:06.905Z,1
2019-04-26T03:33:07.036Z,2
2019-04-26T03:38:06.978Z,1
2019-04-26T03:43:06.975Z,1
2019-04-26T03:48:06.974Z,1
2019-04-26T03:53:06.963Z,1
2019-04-26T03:58:06.987Z,1
2019-04-26T04:03:06.973Z,1
2019-04-26T04:08:06.981Z,1
2019-04-26T04:13:06.996Z,1
2019-04-26T04:18:06.909Z,1
2019-04-26T04:23:07.000Z,1
2019-04-26T04:28:06.997Z,1
2019-04-26T04:33:06.915Z,2
2019-04-26T04:38:09.369Z,1
2019-04-26T04:43:07.060Z,1
2019-04-26T04:48:06.971Z,2
2019-04-26T04:53:06.993Z,1
2019-04-26T04:58:06.953Z,1
2019-04-26T05:03:06.986Z,3
2019-04-26T05:08:07.219Z,2
2019-04-26T05:13:06.946Z,1
2019-04-26T05:18:06.974Z,1
2019-04-26T05:23:06.920Z,2
2019-04-26T05:28:07.014Z,2
2019-04-26T05:33:06.998Z,2
2019-04-26T05:38:17.896Z,2
2019-04-26T05:43:06.997Z,2
2019-04-26T05:48:11.365Z,2
2019-04-26T05:53:06.971Z,3
2019-04-26T05:58:06.994Z,2
2019-04-26T06:03:06.961Z,2
2019-04-26T06:08:07.009Z,2
2019-04-26T06:13:06.919Z,2
2019-04-26T06:18:06.990Z,3
2019-04-26T06:23:06.927Z,3
2019-04-26T06:28:06.990Z,3
2019-04-26T06:33:07.010Z,2
2019-04-26T06:38:06.979Z,5
2019-04-26T06:43:07.040Z,2
2019-04-26T06:48:06.997Z,3
2019-04-26T06:53:07.010Z,4
2019-04-26T06:58:07.228Z,4
2019-04-26T07:03:07.790Z,4
2019-04-26T07:08:07.160Z,4
2019-04-26T07:13:07.807Z,5
2019-04-26T07:18:06.997Z,5
2019-04-26T07:23:07.909Z,6
2019-04-26T07:28:09.608Z,5
2019-04-26T07:33:06.923Z,5
2019-04-26T07:38:06.972Z,5
2019-04-26T07:43:08.090Z,3
2019-04-26T07:48:07.228Z,4
2019-04-26T07:53:07.374Z,4
2019-04-26T07:58:06.996Z,4
2019-04-26T08:03:07.089Z,4
2019-04-26T08:08:07.030Z,3
2019-04-26T08:13:07.957Z,4
2019-04-26T08:18:07.014Z,3
2019-04-26T08:23:13.072Z,3
2019-04-26T08:28:08.131Z,3
2019-04-26T08:33:10.471Z,3
2019-04-26T08:38:13.452Z,3
2019-04-26T08:43:07.041Z,3
2019-04-26T08:48:07.889Z,3
2019-04-26T08:53:07.039Z,4
2019-04-26T08:58:07.042Z,4
2019-04-26T09:03:11.476Z,10
2019-04-26T09:08:07.043Z,4
2019-04-26T09:13:07.031Z,4
2019-04-26T09:18:07.046Z,4
2019-04-26T09:23:07.046Z,5
2019-04-26T09:28:07.047Z,4
2019-04-26T09:33:07.055Z,5
2019-04-26T09:38:07.048Z,5
2019-04-26T09:43:10.346Z,5
2019-04-26T09:48:07.033Z,5
2019-04-26T09:53:06.983Z,5
2019-04-26T09:58:08.579Z,4
2019-04-26T10:03:09.288Z,4
2019-04-26T10:08:08.213Z,5
2019-04-26T10:13:07.069Z,5
2019-04-26T10:18:08.195Z,4
2019-04-26T10:23:07.066Z,4
2019-04-26T10:28:07.051Z,5
2019-04-26T10:33:07.055Z,4
2019-04-26T10:38:07.070Z,4
2019-04-26T10:43:07.048Z,5
2019-04-26T10:48:09.454Z,5
2019-04-26T10:53:06.969Z,5
2019-04-26T10:58:06.911Z,6
2019-04-26T11:03:06.967Z,7
2019-04-26T11:08:06.985Z,5
2019-04-26T11:13:07.001Z,6
2019-04-26T11:18:06.983Z,6
2019-04-26T11:23:08.092Z,6
2019-04-26T11:28:07.003Z,5
2019-04-26T11:33:07.136Z,4
2019-04-26T11:38:06.941Z,5
2019-04-26T11:43:06.988Z,4
2019-04-26T11:48:06.991Z,4
2019-04-26T11:53:10.067Z,4
2019-04-26T11:58:07.014Z,4
2019-04-26T12:03:06.936Z,4
2019-04-26T12:08:07.027Z,5
2019-04-26T12:13:07.113Z,4
2019-04-26T12:18:09.613Z,4
2019-04-26T12:23:07.032Z,3
2019-04-26T12:28:07.315Z,4
2019-04-26T12:33:07.042Z,3
2019-04-26T12:38:06.994Z,4
2019-04-26T12:43:07.077Z,3
2019-04-26T12:48:08.056Z,3
2019-04-26T12:53:06.953Z,3
2019-04-26T12:58:07.045Z,3
2019-04-26T13:03:13.986Z,2
2019-04-26T13:08:06.986Z,2
2019-04-26T13:13:07.038Z,2
2019-04-26T13:18:07.205Z,3
2019-04-26T13:23:07.044Z,3
2019-04-26T13:28:06.998Z,3
2019-04-26T13:33:07.011Z,2
2019-04-26T13:38:08.607Z,3
2019-04-26T13:43:07.923Z,3
2019-04-26T13:48:06.941Z,3
2019-04-26T13:53:07.033Z,2
2019-04-26T13:58:07.048Z,3
2019-04-26T14:03:06.967Z,3
2019-04-26T14:08:07.039Z,2
2019-04-26T14:13:06.974Z,3
2019-04-26T14:18:07.066Z,2
2019-04-26T14:23:07.062Z,2
2019-04-26T14:28:06.979Z,2
2019-04-26T14:33:07.054Z,3
2019-04-26T14:38:06.984Z,2
2019-04-26T14:43:07.246Z,2
2019-04-26T14:48:14.462Z,2
2019-04-26T14:53:07.174Z,2
2019-04-26T14:58:07.065Z,3
2019-04-26T15:03:07.056Z,2
2019-04-26T15:08:09.399Z,3
2019-04-26T15:13:15.301Z,3
2019-04-26T15:18:07.040Z,3
2019-04-26T15:23:07.048Z,4
2019-04-26T15:28:11.751Z,3
2019-04-26T15:33:08.814Z,3
2019-04-26T15:38:07.070Z,2
2019-04-26T15:43:14.185Z,2
2019-04-26T15:48:07.046Z,2
2019-04-26T15:53:11.160Z,2
2019-04-26T15:58:08.268Z,3
2019-04-26T16:03:07.591Z,2
2019-04-26T16:08:07.048Z,5
2019-04-26T16:13:16.627Z,2
2019-04-26T16:18:10.528Z,2
2019-04-26T16:23:07.423Z,3
2019-04-26T16:28:08.169Z,2
2019-04-26T16:33:07.050Z,2
2019-04-26T16:38:12.529Z,2
2019-04-26T16:43:07.024Z,2
2019-04-26T16:48:06.977Z,2
2019-04-26T16:58:07.057Z,3
2019-04-26T17:03:07.824Z,2
2019-04-26T17:08:10.111Z,2
2019-04-26T17:13:07.064Z,2
2019-04-26T17:18:07.010Z,3
2019-04-26T17:23:07.065Z,2
2019-04-26T17:28:07.030Z,3
2019-04-26T17:33:06.973Z,3
2019-04-26T17:38:06.973Z,3
2019-04-26T17:43:09.564Z,3
2019-04-26T17:48:11.491Z,2
2019-04-26T17:53:10.598Z,3
2019-04-26T17:58:11.739Z,2
2019-04-26T18:03:07.563Z,3
2019-04-26T18:08:31.221Z,2
2019-04-26T18:18:09.608Z,2
2019-04-26T18:23:09.975Z,3
2019-04-26T18:28:08.667Z,2
2019-04-26T18:33:07.075Z,2
2019-04-26T18:38:08.451Z,3
2019-04-26T18:43:07.088Z,2
2019-04-26T18:48:07.018Z,3
2019-04-26T18:53:07.012Z,3
2019-04-26T18:58:07.011Z,3
2019-04-26T19:03:07.048Z,3
2019-04-26T19:08:07.527Z,3
2019-04-26T19:13:07.299Z,4
2019-04-26T19:18:07.021Z,3
2019-04-26T19:23:07.020Z,4
2019-04-26T19:28:08.215Z,3
2019-04-26T19:38:07.339Z,4
2019-04-26T19:43:08.895Z,5
2019-04-26T19:48:07.020Z,4
2019-04-26T19:53:10.289Z,3
2019-04-26T19:58:09.549Z,2
2019-04-26T20:08:07.018Z,3
2019-04-26T20:13:07.448Z,2
2019-04-26T20:18:07.020Z,3
2019-04-26T20:23:08.015Z,3
2019-04-26T20:28:07.044Z,3
2019-04-26T20:33:07.029Z,2
2019-04-26T20:38:07.026Z,2
2019-04-26T20:43:14.872Z,2
2019-04-26T20:48:07.020Z,2
2019-04-26T20:53:07.064Z,2
2019-04-26T20:58:08.576Z,3
2019-04-26T21:03:14.567Z,3
2019-04-26T21:08:07.026Z,2
2019-04-26T21:13:07.026Z,2
2019-04-26T21:18:07.043Z,3
2019-04-26T21:23:07.042Z,2
2019-04-26T21:28:08.041Z,2
2019-04-26T21:33:07.028Z,3
2019-04-26T21:38:07.025Z,2
2019-04-26T21:43:07.037Z,3
2019-04-26T21:48:07.988Z,3
2019-04-26T21:53:07.133Z,2
2019-04-26T21:58:07.036Z,3
2019-04-26T22:03:07.774Z,3
2019-04-26T22:08:07.052Z,3
2019-04-26T22:13:07.030Z,3
2019-04-26T22:23:07.030Z,3
2019-04-26T22:28:07.029Z,3
2019-04-26T22:33:07.025Z,4
2019-04-26T22:38:07.103Z,3
2019-04-26T22:43:10.763Z,3
2019-04-26T22:48:07.035Z,3
2019-04-26T22:53:07.029Z,3
2019-04-26T22:58:07.029Z,3
2019-04-26T23:03:07.365Z,2
2019-04-26T23:08:07.034Z,4
2019-04-26T23:13:07.812Z,3
2019-04-26T23:18:08.098Z,4
2019-04-26T23:23:08.576Z,3
2019-04-26T23:28:07.034Z,5
2019-04-26T23:33:07.036Z,9
2019-04-26T23:38:07.046Z,10
2019-04-26T23:43:07.035Z,6
2019-04-26T23:48:07.658Z,7
2019-04-26T23:53:07.141Z,5
2019-04-26T23:58:10.565Z,5
